sensor_id;sensor_type;location;lat;lon;timestamp;pressure;altitude;pressure_sealevel;temperature;humidity
77702;BME280;66868;42.708;23.404;2024-01-07T00:01:23;93704.50;;;5.42;94.81
77702;BME280;66868;42.708;23.404;2024-01-07T00:03:49;93713.81;;;5.54;94.36
77702;BME280;66868;42.708;23.404;2024-01-07T00:06:14;93721.13;;;5.57;93.63
77702;BME280;66868;42.708;23.404;2024-01-07T00:08:39;93708.97;;;5.51;93.27
77702;BME280;66868;42.708;23.404;2024-01-07T00:11:05;93712.88;;;5.55;92.55
77702;BME280;66868;42.708;23.404;2024-01-07T00:13:30;93706.00;;;5.59;92.92
77702;BME280;66868;42.708;23.404;2024-01-07T00:15:56;93693.09;;;5.51;93.15
77702;BME280;66868;42.708;23.404;2024-01-07T00:18:21;93709.81;;;5.38;94.08
77702;BME280;66868;42.708;23.404;2024-01-07T00:20:47;93695.22;;;5.30;93.96
77702;BME280;66868;42.708;23.404;2024-01-07T00:23:13;93691.47;;;5.23;94.04
77702;BME280;66868;42.708;23.404;2024-01-07T00:25:38;93688.09;;;5.10;94.87
77702;BME280;66868;42.708;23.404;2024-01-07T00:28:04;93676.66;;;5.06;95.00
77702;BME280;66868;42.708;23.404;2024-01-07T00:30:29;93682.81;;;5.00;96.12
77702;BME280;66868;42.708;23.404;2024-01-07T00:32:55;93675.16;;;4.89;96.76
77702;BME280;66868;42.708;23.404;2024-01-07T00:35:20;93677.28;;;4.81;96.87
77702;BME280;66868;42.708;23.404;2024-01-07T00:37:46;93665.50;;;4.69;96.63
77702;BME280;66868;42.708;23.404;2024-01-07T00:40:11;93659.34;;;4.60;97.73
77702;BME280;66868;42.708;23.404;2024-01-07T00:42:37;93650.31;;;4.58;97.43
77702;BME280;66868;42.708;23.404;2024-01-07T00:45:03;93649.50;;;4.57;98.34
77702;BME280;66868;42.708;23.404;2024-01-07T00:47:28;93657.72;;;4.59;97.35
77702;BME280;66868;42.708;23.404;2024-01-07T00:49:54;93642.53;;;4.62;97.19
77702;BME280;66868;42.708;23.404;2024-01-07T00:52:19;93625.34;;;4.42;97.65
77702;BME280;66868;42.708;23.404;2024-01-07T00:54:46;93628.56;;;4.44;97.73
77702;BME280;66868;42.708;23.404;2024-01-07T00:57:11;93617.09;;;4.54;97.54
77702;BME280;66868;42.708;23.404;2024-01-07T00:59:40;93616.47;;;4.65;97.20
77702;BME280;66868;42.708;23.404;2024-01-07T01:02:05;93590.81;;;4.61;96.43
77702;BME280;66868;42.708;23.404;2024-01-07T01:04:31;93620.31;;;4.70;95.83
77702;BME280;66868;42.708;23.404;2024-01-07T01:06:56;93599.66;;;4.67;95.61
77702;BME280;66868;42.708;23.404;2024-01-07T01:09:22;93603.47;;;4.72;95.88
77702;BME280;66868;42.708;23.404;2024-01-07T01:11:47;93614.19;;;4.88;95.43
77702;BME280;66868;42.708;23.404;2024-01-07T01:14:15;93604.78;;;4.92;96.08
77702;BME280;66868;42.708;23.404;2024-01-07T01:16:40;93582.31;;;4.90;96.06
77702;BME280;66868;42.708;23.404;2024-01-07T01:19:06;93566.88;;;4.97;95.99
77702;BME280;66868;42.708;23.404;2024-01-07T01:21:31;93574.72;;;5.05;95.51
77702;BME280;66868;42.708;23.404;2024-01-07T01:23:57;93571.78;;;5.12;96.15
77702;BME280;66868;42.708;23.404;2024-01-07T01:26:23;93567.34;;;5.16;95.84
77702;BME280;66868;42.708;23.404;2024-01-07T01:28:48;93568.41;;;5.26;95.99
77702;BME280;66868;42.708;23.404;2024-01-07T01:31:14;93559.25;;;5.25;95.82
77702;BME280;66868;42.708;23.404;2024-01-07T01:33:40;93551.34;;;5.31;95.95
77702;BME280;66868;42.708;23.404;2024-01-07T01:36:05;93537.13;;;5.31;96.52
77702;BME280;66868;42.708;23.404;2024-01-07T01:38:31;93543.94;;;5.42;96.44
77702;BME280;66868;42.708;23.404;2024-01-07T01:40:57;93523.84;;;5.42;95.90
77702;BME280;66868;42.708;23.404;2024-01-07T01:43:24;93502.97;;;5.42;95.26
77702;BME280;66868;42.708;23.404;2024-01-07T01:45:49;93520.56;;;5.54;94.89
77702;BME280;66868;42.708;23.404;2024-01-07T01:48:15;93513.06;;;5.54;95.99
77702;BME280;66868;42.708;23.404;2024-01-07T01:50:40;93510.94;;;5.61;95.91
77702;BME280;66868;42.708;23.404;2024-01-07T01:53:06;93502.59;;;5.60;95.23
77702;BME280;66868;42.708;23.404;2024-01-07T01:55:33;93478.19;;;5.37;96.21
77702;BME280;66868;42.708;23.404;2024-01-07T01:58:00;93487.25;;;5.52;95.58
77702;BME280;66868;42.708;23.404;2024-01-07T02:00:32;93486.94;;;5.57;95.56
77702;BME280;66868;42.708;23.404;2024-01-07T02:02:57;93492.56;;;5.60;94.48
77702;BME280;66868;42.708;23.404;2024-01-07T02:05:23;93474.47;;;5.55;93.38
77702;BME280;66868;42.708;23.404;2024-01-07T02:07:49;93500.59;;;5.65;93.16
77702;BME280;66868;42.708;23.404;2024-01-07T02:10:15;93502.19;;;5.66;93.89
77702;BME280;66868;42.708;23.404;2024-01-07T02:12:40;93502.19;;;5.66;93.02
77702;BME280;66868;42.708;23.404;2024-01-07T02:15:06;93496.97;;;5.69;93.39
77702;BME280;66868;42.708;23.404;2024-01-07T02:17:31;93485.34;;;5.68;93.46
77702;BME280;66868;42.708;23.404;2024-01-07T02:19:57;93474.88;;;5.74;93.16
77702;BME280;66868;42.708;23.404;2024-01-07T02:22:23;93459.63;;;5.77;94.32
77702;BME280;66868;42.708;23.404;2024-01-07T02:24:48;93452.59;;;5.83;93.80
77702;BME280;66868;42.708;23.404;2024-01-07T02:27:13;93442.34;;;5.86;94.19
77702;BME280;66868;42.708;23.404;2024-01-07T02:29:39;93427.09;;;5.89;93.49
77702;BME280;66868;42.708;23.404;2024-01-07T02:32:05;93415.44;;;5.88;94.17
77702;BME280;66868;42.708;23.404;2024-01-07T02:34:31;93398.47;;;5.78;94.46
77702;BME280;66868;42.708;23.404;2024-01-07T02:36:56;93400.38;;;5.88;94.32
77702;BME280;66868;42.708;23.404;2024-01-07T02:39:21;93384.09;;;5.81;94.39
77702;BME280;66868;42.708;23.404;2024-01-07T02:41:47;93392.94;;;5.86;93.84
77702;BME280;66868;42.708;23.404;2024-01-07T02:44:13;93394.66;;;5.86;94.08
77702;BME280;66868;42.708;23.404;2024-01-07T02:46:38;93389.34;;;5.77;93.75
77702;BME280;66868;42.708;23.404;2024-01-07T02:49:04;93414.00;;;5.84;93.76
77702;BME280;66868;42.708;23.404;2024-01-07T02:51:29;93411.81;;;5.79;93.95
77702;BME280;66868;42.708;23.404;2024-01-07T02:53:55;93395.63;;;5.59;93.28
77702;BME280;66868;42.708;23.404;2024-01-07T02:56:20;93399.22;;;5.68;93.59
77702;BME280;66868;42.708;23.404;2024-01-07T02:58:45;93419.03;;;5.84;93.35
77702;BME280;66868;42.708;23.404;2024-01-07T03:01:11;93397.97;;;5.73;93.51
77702;BME280;66868;42.708;23.404;2024-01-07T03:03:37;93425.47;;;5.88;93.52
77702;BME280;66868;42.708;23.404;2024-01-07T03:06:03;93402.41;;;5.70;93.54
77702;BME280;66868;42.708;23.404;2024-01-07T03:08:28;93428.31;;;5.96;93.86
77702;BME280;66868;42.708;23.404;2024-01-07T03:10:54;93423.06;;;5.99;93.22
77702;BME280;66868;42.708;23.404;2024-01-07T03:13:20;93422.84;;;6.02;94.20
77702;BME280;66868;42.708;23.404;2024-01-07T03:15:45;93423.56;;;6.04;93.62
77702;BME280;66868;42.708;23.404;2024-01-07T03:18:11;93426.06;;;6.04;92.83
77702;BME280;66868;42.708;23.404;2024-01-07T03:20:36;93419.38;;;5.92;93.50
77702;BME280;66868;42.708;23.404;2024-01-07T03:23:02;93433.28;;;6.08;93.97
77702;BME280;66868;42.708;23.404;2024-01-07T03:25:27;93432.56;;;6.06;94.33
77702;BME280;66868;42.708;23.404;2024-01-07T03:27:53;93437.72;;;6.05;94.28
77702;BME280;66868;42.708;23.404;2024-01-07T03:30:18;93431.66;;;6.07;94.92
77702;BME280;66868;42.708;23.404;2024-01-07T03:32:44;93417.22;;;5.98;95.25
77702;BME280;66868;42.708;23.404;2024-01-07T03:35:09;93436.09;;;6.04;95.64
77702;BME280;66868;42.708;23.404;2024-01-07T03:37:35;93423.28;;;5.96;96.76
77702;BME280;66868;42.708;23.404;2024-01-07T03:40:01;93434.41;;;6.04;97.14
77702;BME280;66868;42.708;23.404;2024-01-07T03:42:27;93438.72;;;6.02;97.88
77702;BME280;66868;42.708;23.404;2024-01-07T03:44:53;93314.78;;;5.18;97.88
77702;BME280;66868;42.708;23.404;2024-01-07T03:47:18;93439.94;;;5.97;98.16
77702;BME280;66868;42.708;23.404;2024-01-07T03:49:44;93432.88;;;6.02;98.47
77702;BME280;66868;42.708;23.404;2024-01-07T03:52:09;93425.66;;;6.10;98.47
77702;BME280;66868;42.708;23.404;2024-01-07T03:54:35;93423.41;;;6.18;98.90
77702;BME280;66868;42.708;23.404;2024-01-07T03:57:00;93424.03;;;6.09;98.07
77702;BME280;66868;42.708;23.404;2024-01-07T03:59:26;93411.00;;;6.04;98.82
77702;BME280;66868;42.708;23.404;2024-01-07T04:01:56;93424.03;;;6.09;99.51
77702;BME280;66868;42.708;23.404;2024-01-07T04:04:23;93409.38;;;6.03;100.00
77702;BME280;66868;42.708;23.404;2024-01-07T04:06:48;93423.41;;;6.18;100.00
77702;BME280;66868;42.708;23.404;2024-01-07T04:09:14;93396.91;;;6.14;100.00
77702;BME280;66868;42.708;23.404;2024-01-07T04:11:40;93380.22;;;6.13;100.00
77702;BME280;66868;42.708;23.404;2024-01-07T04:14:06;93412.09;;;6.36;100.00
77702;BME280;66868;42.708;23.404;2024-01-07T04:16:31;93402.53;;;6.41;100.00
77702;BME280;66868;42.708;23.404;2024-01-07T04:18:57;93396.13;;;6.48;100.00
77702;BME280;66868;42.708;23.404;2024-01-07T04:21:22;93384.28;;;6.50;100.00
77702;BME280;66868;42.708;23.404;2024-01-07T04:23:48;93377.72;;;6.72;100.00
77702;BME280;66868;42.708;23.404;2024-01-07T04:26:13;93378.91;;;6.79;100.00
77702;BME280;66868;42.708;23.404;2024-01-07T04:28:41;93381.09;;;6.83;100.00
77702;BME280;66868;42.708;23.404;2024-01-07T04:31:07;93396.22;;;6.71;100.00
77702;BME280;66868;42.708;23.404;2024-01-07T04:33:33;93392.06;;;6.58;100.00
77702;BME280;66868;42.708;23.404;2024-01-07T04:35:58;93388.22;;;6.65;100.00
77702;BME280;66868;42.708;23.404;2024-01-07T04:38:26;93367.22;;;6.78;100.00
77702;BME280;66868;42.708;23.404;2024-01-07T04:40:51;93365.19;;;6.83;100.00
77702;BME280;66868;42.708;23.404;2024-01-07T04:43:18;93356.47;;;6.76;100.00
77702;BME280;66868;42.708;23.404;2024-01-07T04:45:43;93370.66;;;6.77;100.00
77702;BME280;66868;42.708;23.404;2024-01-07T04:48:09;93376.09;;;6.71;100.00
77702;BME280;66868;42.708;23.404;2024-01-07T04:50:34;93377.22;;;6.55;100.00
77702;BME280;66868;42.708;23.404;2024-01-07T04:53:00;93374.22;;;6.50;100.00
77702;BME280;66868;42.708;23.404;2024-01-07T04:55:26;93365.88;;;6.50;100.00
77702;BME280;66868;42.708;23.404;2024-01-07T04:57:52;93358.72;;;6.56;100.00
77702;BME280;66868;42.708;23.404;2024-01-07T05:00:18;93353.00;;;6.54;100.00
77702;BME280;66868;42.708;23.404;2024-01-07T05:02:43;93362.16;;;6.66;100.00
77702;BME280;66868;42.708;23.404;2024-01-07T05:05:08;93357.41;;;6.75;100.00
77702;BME280;66868;42.708;23.404;2024-01-07T05:07:34;93372.91;;;6.69;100.00
77702;BME280;66868;42.708;23.404;2024-01-07T05:10:00;93378.59;;;6.59;100.00
77702;BME280;66868;42.708;23.404;2024-01-07T05:12:25;93369.50;;;6.70;100.00
77702;BME280;66868;42.708;23.404;2024-01-07T05:14:51;93351.19;;;6.68;100.00
77702;BME280;66868;42.708;23.404;2024-01-07T05:17:17;93356.22;;;6.68;100.00
77702;BME280;66868;42.708;23.404;2024-01-07T05:19:43;93346.59;;;6.61;100.00
77702;BME280;66868;42.708;23.404;2024-01-07T05:22:08;93352.66;;;6.59;100.00
77702;BME280;66868;42.708;23.404;2024-01-07T05:24:37;93335.53;;;6.64;100.00
77702;BME280;66868;42.708;23.404;2024-01-07T05:27:03;93331.56;;;6.73;100.00
77702;BME280;66868;42.708;23.404;2024-01-07T05:29:28;93343.00;;;6.77;100.00
77702;BME280;66868;42.708;23.404;2024-01-07T05:31:54;93355.56;;;6.77;100.00
77702;BME280;66868;42.708;23.404;2024-01-07T05:34:19;93367.81;;;6.81;100.00
77702;BME280;66868;42.708;23.404;2024-01-07T05:36:45;93374.34;;;6.84;100.00
77702;BME280;66868;42.708;23.404;2024-01-07T05:39:10;93367.22;;;6.78;100.00
77702;BME280;66868;42.708;23.404;2024-01-07T05:41:37;93357.13;;;6.66;100.00
77702;BME280;66868;42.708;23.404;2024-01-07T05:44:06;93357.84;;;6.69;100.00
77702;BME280;66868;42.708;23.404;2024-01-07T05:46:32;93358.97;;;6.76;100.00
77702;BME280;66868;42.708;23.404;2024-01-07T05:48:58;93357.19;;;6.78;100.00
77702;BME280;66868;42.708;23.404;2024-01-07T05:51:24;93360.25;;;6.70;100.00
77702;BME280;66868;42.708;23.404;2024-01-07T05:53:49;93363.09;;;6.65;100.00
77702;BME280;66868;42.708;23.404;2024-01-07T05:56:15;93360.59;;;6.77;100.00
77702;BME280;66868;42.708;23.404;2024-01-07T05:58:40;93359.34;;;6.82;100.00
77702;BME280;66868;42.708;23.404;2024-01-07T06:01:07;93365.91;;;6.96;100.00
77702;BME280;66868;42.708;23.404;2024-01-07T06:03:33;93370.13;;;6.95;100.00
77702;BME280;66868;42.708;23.404;2024-01-07T06:05:59;93356.19;;;6.91;100.00
77702;BME280;66868;42.708;23.404;2024-01-07T06:08:28;93382.13;;;7.03;100.00
77702;BME280;66868;42.708;23.404;2024-01-07T06:10:54;93381.22;;;7.04;100.00
77702;BME280;66868;42.708;23.404;2024-01-07T06:16:03;93348.31;;;7.07;100.00
77702;BME280;66868;42.708;23.404;2024-01-07T06:18:29;93362.13;;;7.13;100.00
77702;BME280;66868;42.708;23.404;2024-01-07T06:20:55;93366.59;;;7.09;100.00
77702;BME280;66868;42.708;23.404;2024-01-07T06:23:20;93366.41;;;7.12;100.00
77702;BME280;66868;42.708;23.404;2024-01-07T06:25:46;93369.16;;;7.20;100.00
77702;BME280;66868;42.708;23.404;2024-01-07T06:28:11;93365.47;;;7.24;100.00
77702;BME280;66868;42.708;23.404;2024-01-07T06:30:37;93367.09;;;7.25;100.00
77702;BME280;66868;42.708;23.404;2024-01-07T06:33:02;93366.84;;;7.28;100.00
77702;BME280;66868;42.708;23.404;2024-01-07T06:35:28;93362.38;;;7.32;100.00
77702;BME280;66868;42.708;23.404;2024-01-07T06:37:53;93359.53;;;7.36;100.00
77702;BME280;66868;42.708;23.404;2024-01-07T06:40:19;93344.91;;;7.30;100.00
77702;BME280;66868;42.708;23.404;2024-01-07T06:42:45;93370.97;;;7.40;100.00
77702;BME280;66868;42.708;23.404;2024-01-07T06:45:10;93374.19;;;7.42;100.00
77702;BME280;66868;42.708;23.404;2024-01-07T06:47:36;93362.50;;;7.41;99.48
77702;BME280;66868;42.708;23.404;2024-01-07T06:50:03;93378.06;;;7.46;99.80
77702;BME280;66868;42.708;23.404;2024-01-07T06:52:28;93389.06;;;7.45;100.00
77702;BME280;66868;42.708;23.404;2024-01-07T06:54:54;93401.44;;;7.48;99.10
77702;BME280;66868;42.708;23.404;2024-01-07T06:57:19;93403.94;;;7.48;99.50
77702;BME280;66868;42.708;23.404;2024-01-07T06:59:44;93408.38;;;7.45;98.76
77702;BME280;66868;42.708;23.404;2024-01-07T07:02:10;93401.78;;;7.44;99.28
77702;BME280;66868;42.708;23.404;2024-01-07T07:04:36;93392.50;;;7.44;100.00
77702;BME280;66868;42.708;23.404;2024-01-07T07:07:01;93353.13;;;7.21;99.42
77702;BME280;66868;42.708;23.404;2024-01-07T07:09:27;93366.28;;;7.36;99.71
77702;BME280;66868;42.708;23.404;2024-01-07T07:11:53;93377.63;;;7.52;99.48
77702;BME280;66868;42.708;23.404;2024-01-07T07:14:18;93370.41;;;7.48;99.00
77702;BME280;66868;42.708;23.404;2024-01-07T07:16:44;93380.59;;;7.58;99.19
77702;BME280;66868;42.708;23.404;2024-01-07T07:19:09;93343.41;;;7.39;99.22
77702;BME280;66868;42.708;23.404;2024-01-07T07:21:40;93358.41;;;7.51;99.05
77702;BME280;66868;42.708;23.404;2024-01-07T07:24:05;93362.63;;;7.62;98.82
77702;BME280;66868;42.708;23.404;2024-01-07T07:26:31;93368.91;;;7.68;98.81
77702;BME280;66868;42.708;23.404;2024-01-07T07:28:57;93376.25;;;7.71;98.87
77702;BME280;66868;42.708;23.404;2024-01-07T07:31:22;93370.88;;;7.75;99.22
77702;BME280;66868;42.708;23.404;2024-01-07T07:33:48;93370.88;;;7.75;98.78
77702;BME280;66868;42.708;23.404;2024-01-07T07:36:14;93371.06;;;7.83;99.06
77702;BME280;66868;42.708;23.404;2024-01-07T07:38:40;93369.72;;;7.90;98.58
77702;BME280;66868;42.708;23.404;2024-01-07T07:41:06;93385.38;;;7.94;99.36
77702;BME280;66868;42.708;23.404;2024-01-07T07:43:33;93379.84;;;8.00;98.85
77702;BME280;66868;42.708;23.404;2024-01-07T07:45:58;93379.41;;;8.06;99.05
77702;BME280;66868;42.708;23.404;2024-01-07T07:48:25;93380.28;;;8.16;99.01
77702;BME280;66868;42.708;23.404;2024-01-07T07:50:51;93379.84;;;8.22;99.00
77702;BME280;66868;42.708;23.404;2024-01-07T07:53:16;93376.81;;;8.28;98.81
77702;BME280;66868;42.708;23.404;2024-01-07T07:55:42;93325.81;;;8.04;98.99
77702;BME280;66868;42.708;23.404;2024-01-07T07:58:07;93369.50;;;8.36;99.25
77702;BME280;66868;42.708;23.404;2024-01-07T08:00:33;93369.00;;;8.42;98.99
77702;BME280;66868;42.708;23.404;2024-01-07T08:02:59;93374.94;;;8.53;98.66
77702;BME280;66868;42.708;23.404;2024-01-07T08:05:24;93364.31;;;8.49;98.74
77702;BME280;66868;42.708;23.404;2024-01-07T08:07:50;93369.16;;;8.62;98.85
77702;BME280;66868;42.708;23.404;2024-01-07T08:10:15;93364.31;;;8.70;99.20
77702;BME280;66868;42.708;23.404;2024-01-07T08:12:41;93365.44;;;8.77;98.77
77702;BME280;66868;42.708;23.404;2024-01-07T08:15:07;93359.72;;;8.75;98.96
77702;BME280;66868;42.708;23.404;2024-01-07T08:17:33;93367.88;;;8.88;99.23
77702;BME280;66868;42.708;23.404;2024-01-07T08:19:58;93365.00;;;8.93;98.99
77702;BME280;66868;42.708;23.404;2024-01-07T08:22:24;93361.19;;;8.98;98.96
77702;BME280;66868;42.708;23.404;2024-01-07T08:24:50;93361.13;;;9.09;99.21
77702;BME280;66868;42.708;23.404;2024-01-07T08:27:15;93375.78;;;9.15;98.26
77702;BME280;66868;42.708;23.404;2024-01-07T08:29:44;93375.28;;;9.21;98.36
77702;BME280;66868;42.708;23.404;2024-01-07T08:32:09;93359.03;;;9.14;98.93
77702;BME280;66868;42.708;23.404;2024-01-07T08:34:35;93360.97;;;9.31;98.80
77702;BME280;66868;42.708;23.404;2024-01-07T08:37:01;93350.72;;;9.23;98.55
77702;BME280;66868;42.708;23.404;2024-01-07T08:39:26;93371.41;;;9.38;98.65
77702;BME280;66868;42.708;23.404;2024-01-07T08:41:54;93367.69;;;9.42;98.59
77702;BME280;66868;42.708;23.404;2024-01-07T08:44:19;93363.19;;;9.46;98.72
77702;BME280;66868;42.708;23.404;2024-01-07T08:46:45;93364.81;;;9.56;98.46
77702;BME280;66868;42.708;23.404;2024-01-07T08:49:11;93359.25;;;9.62;99.17
77702;BME280;66868;42.708;23.404;2024-01-07T08:51:36;93358.63;;;9.70;98.17
77702;BME280;66868;42.708;23.404;2024-01-07T08:54:03;93359.69;;;9.77;97.95
77702;BME280;66868;42.708;23.404;2024-01-07T08:56:29;93352.66;;;9.81;98.64
77702;BME280;66868;42.708;23.404;2024-01-07T08:58:54;93353.47;;;9.81;97.79
77702;BME280;66868;42.708;23.404;2024-01-07T09:01:19;93339.91;;;9.82;97.33
77702;BME280;66868;42.708;23.404;2024-01-07T09:03:45;93350.88;;;10.02;96.73
77702;BME280;66868;42.708;23.404;2024-01-07T09:06:10;93357.56;;;10.12;96.05
77702;BME280;66868;42.708;23.404;2024-01-07T09:08:36;93350.28;;;10.29;95.73
77702;BME280;66868;42.708;23.404;2024-01-07T09:11:05;93357.06;;;10.38;94.09
77702;BME280;66868;42.708;23.404;2024-01-07T09:13:31;93354.66;;;10.46;91.73
77702;BME280;66868;42.708;23.404;2024-01-07T09:15:57;93366.69;;;10.63;90.42
77702;BME280;66868;42.708;23.404;2024-01-07T09:18:23;93348.69;;;10.66;90.11
77702;BME280;66868;42.708;23.404;2024-01-07T09:20:48;93369.56;;;10.87;90.41
77702;BME280;66868;42.708;23.404;2024-01-07T09:23:14;93365.06;;;11.00;90.67
77702;BME280;66868;42.708;23.404;2024-01-07T09:25:41;93333.06;;;10.99;90.44
77702;BME280;66868;42.708;23.404;2024-01-07T09:28:07;93353.94;;;11.30;88.64
77702;BME280;66868;42.708;23.404;2024-01-07T09:30:32;93350.28;;;11.42;88.38
77702;BME280;66868;42.708;23.404;2024-01-07T09:32:58;93358.81;;;11.51;87.57
77702;BME280;66868;42.708;23.404;2024-01-07T09:35:23;93363.03;;;11.60;85.23
77702;BME280;66868;42.708;23.404;2024-01-07T09:37:49;93346.59;;;11.37;83.81
77702;BME280;66868;42.708;23.404;2024-01-07T09:40:18;93352.38;;;11.57;84.07
77702;BME280;66868;42.708;23.404;2024-01-07T09:42:45;93348.59;;;11.61;83.79
77702;BME280;66868;42.708;23.404;2024-01-07T09:45:12;93331.41;;;11.64;83.44
77702;BME280;66868;42.708;23.404;2024-01-07T09:47:40;93337.38;;;11.82;83.86
77702;BME280;66868;42.708;23.404;2024-01-07T09:50:06;93352.94;;;11.87;82.92
77702;BME280;66868;42.708;23.404;2024-01-07T09:52:35;93343.31;;;11.91;82.94
77702;BME280;66868;42.708;23.404;2024-01-07T09:55:02;93343.75;;;11.86;83.21
77702;BME280;66868;42.708;23.404;2024-01-07T09:57:29;93327.59;;;11.87;83.48
77702;BME280;66868;42.708;23.404;2024-01-07T09:59:55;93319.41;;;11.93;82.91
77702;BME280;66868;42.708;23.404;2024-01-07T10:02:20;93316.97;;;12.02;82.69
77702;BME280;66868;42.708;23.404;2024-01-07T10:04:48;93339.59;;;12.13;82.63
77702;BME280;66868;42.708;23.404;2024-01-07T10:07:15;93326.63;;;11.88;81.27
77702;BME280;66868;42.708;23.404;2024-01-07T10:09:40;93348.25;;;11.92;80.52
77702;BME280;66868;42.708;23.404;2024-01-07T10:12:09;93339.31;;;11.88;81.62
77702;BME280;66868;42.708;23.404;2024-01-07T10:14:34;93331.41;;;11.74;82.09
77702;BME280;66868;42.708;23.404;2024-01-07T10:17:00;93331.53;;;11.72;83.15
77702;BME280;66868;42.708;23.404;2024-01-07T10:19:26;93327.38;;;11.71;83.39
77702;BME280;66868;42.708;23.404;2024-01-07T10:22:02;93325.75;;;11.80;83.09
77702;BME280;66868;42.708;23.404;2024-01-07T10:24:38;93320.94;;;11.86;83.47
77702;BME280;66868;42.708;23.404;2024-01-07T10:27:05;93314.63;;;11.90;83.32
77702;BME280;66868;42.708;23.404;2024-01-07T10:29:32;93315.56;;;11.89;82.16
77702;BME280;66868;42.708;23.404;2024-01-07T10:31:58;93313.03;;;11.89;82.69
77702;BME280;66868;42.708;23.404;2024-01-07T10:34:29;93298.97;;;11.77;82.84
77702;BME280;66868;42.708;23.404;2024-01-07T10:36:58;93290.56;;;11.67;83.14
77702;BME280;66868;42.708;23.404;2024-01-07T10:39:24;93281.66;;;11.63;83.98
77702;BME280;66868;42.708;23.404;2024-01-07T10:41:50;93284.28;;;11.71;84.91
77702;BME280;66868;42.708;23.404;2024-01-07T10:44:19;93265.22;;;11.67;84.67
77702;BME280;66868;42.708;23.404;2024-01-07T10:46:45;93290.63;;;11.85;84.09
77702;BME280;66868;42.708;23.404;2024-01-07T10:49:19;93285.31;;;11.88;84.36
77702;BME280;66868;42.708;23.404;2024-01-07T10:52:06;93289.66;;;11.95;83.98
77702;BME280;66868;42.708;23.404;2024-01-07T10:54:34;93269.72;;;12.01;84.42
77702;BME280;66868;42.708;23.404;2024-01-07T10:57:09;93274.56;;;12.12;83.77
77702;BME280;66868;42.708;23.404;2024-01-07T10:59:38;93273.44;;;12.06;82.88
77702;BME280;66868;42.708;23.404;2024-01-07T11:02:07;93278.78;;;12.21;82.88
77702;BME280;66868;42.708;23.404;2024-01-07T11:04:54;93280.19;;;12.33;82.99
77702;BME280;66868;42.708;23.404;2024-01-07T11:07:41;93299.81;;;12.49;82.65
77702;BME280;66868;42.708;23.404;2024-01-07T11:10:25;93290.09;;;12.62;82.37
77702;BME280;66868;42.708;23.404;2024-01-07T11:12:55;93275.78;;;12.78;81.83
77702;BME280;66868;42.708;23.404;2024-01-07T11:15:50;93277.69;;;13.02;81.64
77702;BME280;66868;42.708;23.404;2024-01-07T11:18:20;93270.69;;;13.22;79.97
77702;BME280;66868;42.708;23.404;2024-01-07T11:20:46;93271.22;;;13.34;78.88
77702;BME280;66868;42.708;23.404;2024-01-07T11:23:44;93284.00;;;13.50;78.50
77702;BME280;66868;42.708;23.404;2024-01-07T11:26:12;93249.16;;;13.42;78.41
77702;BME280;66868;42.708;23.404;2024-01-07T11:28:50;93287.28;;;13.76;77.99
77702;BME280;66868;42.708;23.404;2024-01-07T11:31:18;93281.28;;;13.85;77.96
77702;BME280;66868;42.708;23.404;2024-01-07T11:33:46;93264.88;;;13.88;77.56
77702;BME280;66868;42.708;23.404;2024-01-07T11:36:16;93267.97;;;14.07;76.89
77702;BME280;66868;42.708;23.404;2024-01-07T11:38:46;93242.66;;;13.98;76.39
77702;BME280;66868;42.708;23.404;2024-01-07T11:41:13;93263.34;;;14.11;76.04
77702;BME280;66868;42.708;23.404;2024-01-07T11:43:52;93263.34;;;14.03;76.49
77702;BME280;66868;42.708;23.404;2024-01-07T11:46:18;93266.22;;;14.08;74.37
77702;BME280;66868;42.708;23.404;2024-01-07T11:48:45;93268.44;;;14.03;72.87
77702;BME280;66868;42.708;23.404;2024-01-07T11:51:11;93265.88;;;13.95;72.36
77702;BME280;66868;42.708;23.404;2024-01-07T11:53:37;93276.38;;;13.92;71.58
77702;BME280;66868;42.708;23.404;2024-01-07T11:56:03;93278.59;;;13.95;71.96
77702;BME280;66868;42.708;23.404;2024-01-07T11:58:30;93270.91;;;13.79;72.53
77702;BME280;66868;42.708;23.404;2024-01-07T12:00:55;93288.09;;;13.85;72.83
77702;BME280;66868;42.708;23.404;2024-01-07T12:03:22;93292.84;;;13.80;71.16
77702;BME280;66868;42.708;23.404;2024-01-07T12:05:48;93280.84;;;13.56;71.43
77702;BME280;66868;42.708;23.404;2024-01-07T12:08:14;93269.81;;;13.39;73.49
77702;BME280;66868;42.708;23.404;2024-01-07T12:10:41;93274.56;;;13.34;74.52
77702;BME280;66868;42.708;23.404;2024-01-07T12:13:07;93273.56;;;13.27;75.50
77702;BME280;66868;42.708;23.404;2024-01-07T12:15:34;93273.50;;;13.19;76.03
77702;BME280;66868;42.708;23.404;2024-01-07T12:17:59;93257.81;;;12.98;74.48
77702;BME280;66868;42.708;23.404;2024-01-07T12:20:27;93272.13;;;12.99;75.20
77702;BME280;66868;42.708;23.404;2024-01-07T12:22:56;93265.84;;;12.85;75.77
77702;BME280;66868;42.708;23.404;2024-01-07T12:25:23;93280.84;;;12.78;75.25
77702;BME280;66868;42.708;23.404;2024-01-07T12:27:51;93276.97;;;12.66;74.96
77702;BME280;66868;42.708;23.404;2024-01-07T12:30:20;93266.38;;;12.53;74.21
77702;BME280;66868;42.708;23.404;2024-01-07T12:32:46;93288.22;;;12.46;73.63
77702;BME280;66868;42.708;23.404;2024-01-07T12:35:12;93282.84;;;12.31;73.79
77702;BME280;66868;42.708;23.404;2024-01-07T12:37:37;93279.75;;;12.20;72.76
77702;BME280;66868;42.708;23.404;2024-01-07T12:40:03;93280.50;;;12.03;72.73
77702;BME280;66868;42.708;23.404;2024-01-07T12:42:30;93289.94;;;11.92;74.71
77702;BME280;66868;42.708;23.404;2024-01-07T12:44:55;93281.59;;;11.82;74.81
77702;BME280;66868;42.708;23.404;2024-01-07T12:47:21;93288.25;;;11.83;74.96
77702;BME280;66868;42.708;23.404;2024-01-07T12:49:46;93286.50;;;11.84;74.20
77702;BME280;66868;42.708;23.404;2024-01-07T12:52:12;93287.31;;;11.84;74.63
77702;BME280;66868;42.708;23.404;2024-01-07T12:54:38;93291.72;;;11.82;75.42